sensor_id;sensor_type;location;lat;lon;timestamp;P1;durP1;ratioP1;P2;durP2;ratioP2
41139;SDS011;26881;48.784;9.192;2023-07-20T00:01:21;3.25;;;2.40;;
41139;SDS011;26881;48.784;9.192;2023-07-20T00:06:43;7.40;;;2.72;;
41139;SDS011;26881;48.784;9.192;2023-07-20T00:12:05;2.75;;;1.85;;
41139;SDS011;26881;48.784;9.192;2023-07-20T00:17:27;3.28;;;2.30;;
41139;SDS011;26881;48.784;9.192;2023-07-20T00:22:49;4.55;;;1.95;;
41139;SDS011;26881;48.784;9.192;2023-07-20T00:28:12;3.33;;;1.73;;
41139;SDS011;26881;48.784;9.192;2023-07-20T00:33:34;2.83;;;1.77;;
41139;SDS011;26881;48.784;9.192;2023-07-20T00:38:56;2.65;;;1.90;;
41139;SDS011;26881;48.784;9.192;2023-07-20T00:44:18;2.50;;;1.75;;
41139;SDS011;26881;48.784;9.192;2023-07-20T00:49:40;4.65;;;1.90;;
41139;SDS011;26881;48.784;9.192;2023-07-20T00:55:02;2.55;;;1.70;;
41139;SDS011;26881;48.784;9.192;2023-07-20T01:00:24;5.80;;;2.00;;
41139;SDS011;26881;48.784;9.192;2023-07-20T01:05:51;5.22;;;1.98;;
41139;SDS011;26881;48.784;9.192;2023-07-20T01:17:01;4.93;;;1.92;;
41139;SDS011;26881;48.784;9.192;2023-07-20T01:33:34;3.00;;;1.80;;
41139;SDS011;26881;48.784;9.192;2023-07-20T01:38:57;2.05;;;1.83;;
41139;SDS011;26881;48.784;9.192;2023-07-20T01:44:19;3.85;;;1.95;;
41139;SDS011;26881;48.784;9.192;2023-07-20T01:49:41;7.35;;;2.22;;
41139;SDS011;26881;48.784;9.192;2023-07-20T01:55:03;5.80;;;2.08;;
41139;SDS011;26881;48.784;9.192;2023-07-20T02:00:26;4.68;;;1.80;;
41139;SDS011;26881;48.784;9.192;2023-07-20T02:05:48;4.18;;;2.08;;
41139;SDS011;26881;48.784;9.192;2023-07-20T02:11:09;3.58;;;2.10;;
41139;SDS011;26881;48.784;9.192;2023-07-20T02:16:31;6.55;;;2.00;;
41139;SDS011;26881;48.784;9.192;2023-07-20T02:21:53;5.85;;;2.05;;
41139;SDS011;26881;48.784;9.192;2023-07-20T02:27:15;5.55;;;2.22;;
41139;SDS011;26881;48.784;9.192;2023-07-20T02:32:38;4.75;;;2.05;;
41139;SDS011;26881;48.784;9.192;2023-07-20T02:38:00;2.53;;;2.05;;
41139;SDS011;26881;48.784;9.192;2023-07-20T02:43:22;2.92;;;2.08;;
41139;SDS011;26881;48.784;9.192;2023-07-20T02:48:44;6.25;;;2.15;;
41139;SDS011;26881;48.784;9.192;2023-07-20T02:54:06;3.67;;;2.00;;
41139;SDS011;26881;48.784;9.192;2023-07-20T02:59:28;5.28;;;2.28;;
41139;SDS011;26881;48.784;9.192;2023-07-20T03:04:50;4.70;;;2.45;;
41139;SDS011;26881;48.784;9.192;2023-07-20T03:10:12;3.80;;;2.33;;
41139;SDS011;26881;48.784;9.192;2023-07-20T03:15:34;3.08;;;1.77;;
41139;SDS011;26881;48.784;9.192;2023-07-20T03:20:56;3.40;;;2.30;;
41139;SDS011;26881;48.784;9.192;2023-07-20T03:26:19;5.68;;;2.10;;
41139;SDS011;26881;48.784;9.192;2023-07-20T03:31:41;4.40;;;2.30;;
41139;SDS011;26881;48.784;9.192;2023-07-20T03:37:03;2.33;;;1.88;;
41139;SDS011;26881;48.784;9.192;2023-07-20T03:42:26;4.82;;;2.20;;
41139;SDS011;26881;48.784;9.192;2023-07-20T03:47:48;3.08;;;2.05;;
41139;SDS011;26881;48.784;9.192;2023-07-20T03:53:10;6.38;;;2.40;;
41139;SDS011;26881;48.784;9.192;2023-07-20T03:58:31;2.80;;;2.00;;
41139;SDS011;26881;48.784;9.192;2023-07-20T04:03:53;5.30;;;2.22;;
41139;SDS011;26881;48.784;9.192;2023-07-20T04:09:15;5.28;;;2.10;;
41139;SDS011;26881;48.784;9.192;2023-07-20T04:14:37;5.40;;;2.25;;
41139;SDS011;26881;48.784;9.192;2023-07-20T04:19:59;3.20;;;2.28;;
41139;SDS011;26881;48.784;9.192;2023-07-20T04:25:21;4.75;;;2.10;;
41139;SDS011;26881;48.784;9.192;2023-07-20T04:30:43;3.58;;;1.95;;
41139;SDS011;26881;48.784;9.192;2023-07-20T04:36:05;3.88;;;2.15;;
41139;SDS011;26881;48.784;9.192;2023-07-20T04:41:27;7.43;;;2.35;;
41139;SDS011;26881;48.784;9.192;2023-07-20T04:46:49;2.47;;;1.77;;
41139;SDS011;26881;48.784;9.192;2023-07-20T04:52:11;3.10;;;1.95;;
41139;SDS011;26881;48.784;9.192;2023-07-20T04:57:32;5.57;;;2.10;;
41139;SDS011;26881;48.784;9.192;2023-07-20T05:02:55;2.92;;;2.08;;
41139;SDS011;26881;48.784;9.192;2023-07-20T05:08:17;3.40;;;1.92;;
41139;SDS011;26881;48.784;9.192;2023-07-20T05:13:40;3.67;;;2.13;;
41139;SDS011;26881;48.784;9.192;2023-07-20T05:19:01;5.35;;;2.17;;
41139;SDS011;26881;48.784;9.192;2023-07-20T05:24:24;2.38;;;2.00;;
41139;SDS011;26881;48.784;9.192;2023-07-20T05:29:46;8.73;;;1.95;;
41139;SDS011;26881;48.784;9.192;2023-07-20T05:35:07;4.03;;;2.90;;
41139;SDS011;26881;48.784;9.192;2023-07-20T05:40:30;4.35;;;1.95;;
41139;SDS011;26881;48.784;9.192;2023-07-20T05:45:52;3.47;;;2.15;;
41139;SDS011;26881;48.784;9.192;2023-07-20T05:51:14;3.75;;;2.22;;
41139;SDS011;26881;48.784;9.192;2023-07-20T05:56:37;3.95;;;2.20;;
41139;SDS011;26881;48.784;9.192;2023-07-20T06:01:58;3.85;;;2.47;;
41139;SDS011;26881;48.784;9.192;2023-07-20T06:07:20;3.40;;;2.28;;
41139;SDS011;26881;48.784;9.192;2023-07-20T06:12:42;5.55;;;1.95;;
41139;SDS011;26881;48.784;9.192;2023-07-20T06:18:04;2.65;;;2.05;;
41139;SDS011;26881;48.784;9.192;2023-07-20T06:23:26;6.00;;;2.53;;
41139;SDS011;26881;48.784;9.192;2023-07-20T06:28:48;5.65;;;2.17;;
41139;SDS011;26881;48.784;9.192;2023-07-20T06:34:10;5.05;;;2.13;;
41139;SDS011;26881;48.784;9.192;2023-07-20T06:39:32;5.25;;;2.30;;
41139;SDS011;26881;48.784;9.192;2023-07-20T06:44:57;4.07;;;2.05;;
41139;SDS011;26881;48.784;9.192;2023-07-20T06:50:19;6.85;;;2.20;;
41139;SDS011;26881;48.784;9.192;2023-07-20T06:55:44;3.78;;;2.10;;
41139;SDS011;26881;48.784;9.192;2023-07-20T07:01:10;3.03;;;1.95;;
41139;SDS011;26881;48.784;9.192;2023-07-20T07:06:32;7.75;;;2.20;;
41139;SDS011;26881;48.784;9.192;2023-07-20T07:11:54;6.82;;;2.15;;
41139;SDS011;26881;48.784;9.192;2023-07-20T07:17:16;5.65;;;1.75;;
41139;SDS011;26881;48.784;9.192;2023-07-20T07:22:41;7.00;;;1.85;;
41139;SDS011;26881;48.784;9.192;2023-07-20T07:28:06;3.25;;;1.83;;
41139;SDS011;26881;48.784;9.192;2023-07-20T07:33:28;7.80;;;2.33;;
41139;SDS011;26881;48.784;9.192;2023-07-20T07:38:50;4.22;;;2.20;;
41139;SDS011;26881;48.784;9.192;2023-07-20T07:44:32;7.38;;;1.88;;
41139;SDS011;26881;48.784;9.192;2023-07-20T07:49:54;3.88;;;2.10;;
41139;SDS011;26881;48.784;9.192;2023-07-20T07:55:16;4.70;;;1.98;;
41139;SDS011;26881;48.784;9.192;2023-07-20T08:00:39;3.95;;;1.73;;
41139;SDS011;26881;48.784;9.192;2023-07-20T08:06:01;5.50;;;1.75;;
41139;SDS011;26881;48.784;9.192;2023-07-20T08:11:26;5.30;;;2.05;;
41139;SDS011;26881;48.784;9.192;2023-07-20T08:16:47;5.88;;;2.20;;
41139;SDS011;26881;48.784;9.192;2023-07-20T08:22:10;8.57;;;1.90;;
41139;SDS011;26881;48.784;9.192;2023-07-20T08:27:32;3.78;;;1.95;;
41139;SDS011;26881;48.784;9.192;2023-07-20T08:32:53;5.32;;;2.05;;
41139;SDS011;26881;48.784;9.192;2023-07-20T08:38:15;4.15;;;1.90;;
41139;SDS011;26881;48.784;9.192;2023-07-20T08:43:37;3.67;;;1.60;;
41139;SDS011;26881;48.784;9.192;2023-07-20T08:49:05;4.97;;;1.92;;
41139;SDS011;26881;48.784;9.192;2023-07-20T08:54:29;7.07;;;1.85;;
41139;SDS011;26881;48.784;9.192;2023-07-20T08:59:54;4.40;;;2.00;;
41139;SDS011;26881;48.784;9.192;2023-07-20T09:05:16;13.77;;;2.30;;
41139;SDS011;26881;48.784;9.192;2023-07-20T09:10:38;6.32;;;1.83;;
41139;SDS011;26881;48.784;9.192;2023-07-20T09:16:00;7.35;;;2.00;;
41139;SDS011;26881;48.784;9.192;2023-07-20T09:21:22;7.50;;;1.88;;
41139;SDS011;26881;48.784;9.192;2023-07-20T09:26:45;5.68;;;1.55;;
41139;SDS011;26881;48.784;9.192;2023-07-20T09:32:12;3.20;;;1.50;;
41139;SDS011;26881;48.784;9.192;2023-07-20T09:37:46;4.18;;;1.80;;
41139;SDS011;26881;48.784;9.192;2023-07-20T09:43:10;3.17;;;1.98;;
41139;SDS011;26881;48.784;9.192;2023-07-20T09:48:35;2.72;;;1.60;;
41139;SDS011;26881;48.784;9.192;2023-07-20T09:54:17;3.78;;;1.58;;
41139;SDS011;26881;48.784;9.192;2023-07-20T09:59:41;4.90;;;1.60;;
41139;SDS011;26881;48.784;9.192;2023-07-20T10:05:03;5.03;;;1.63;;
41139;SDS011;26881;48.784;9.192;2023-07-20T10:10:26;4.00;;;1.90;;
41139;SDS011;26881;48.784;9.192;2023-07-20T10:15:56;4.80;;;1.65;;
41139;SDS011;26881;48.784;9.192;2023-07-20T10:21:24;4.80;;;1.90;;
41139;SDS011;26881;48.784;9.192;2023-07-20T10:26:50;2.58;;;1.60;;
41139;SDS011;26881;48.784;9.192;2023-07-20T10:32:12;1.90;;;1.48;;
41139;SDS011;26881;48.784;9.192;2023-07-20T10:37:48;2.53;;;1.30;;
41139;SDS011;26881;48.784;9.192;2023-07-20T10:43:11;3.38;;;1.40;;
41139;SDS011;26881;48.784;9.192;2023-07-20T10:48:32;2.97;;;1.30;;
41139;SDS011;26881;48.784;9.192;2023-07-20T10:53:58;3.45;;;1.25;;
41139;SDS011;26881;48.784;9.192;2023-07-20T10:59:35;3.50;;;1.20;;
41139;SDS011;26881;48.784;9.192;2023-07-20T11:05:00;2.83;;;1.27;;
41139;SDS011;26881;48.784;9.192;2023-07-20T11:10:23;4.72;;;1.30;;
41139;SDS011;26881;48.784;9.192;2023-07-20T11:21:19;1.20;;;1.10;;
41139;SDS011;26881;48.784;9.192;2023-07-20T11:26:42;4.45;;;1.50;;
41139;SDS011;26881;48.784;9.192;2023-07-20T11:32:06;1.85;;;1.40;;
41139;SDS011;26881;48.784;9.192;2023-07-20T11:37:28;1.63;;;1.25;;
41139;SDS011;26881;48.784;9.192;2023-07-20T11:42:51;2.72;;;1.23;;
41139;SDS011;26881;48.784;9.192;2023-07-20T11:48:16;1.17;;;1.10;;
41139;SDS011;26881;48.784;9.192;2023-07-20T11:53:38;2.47;;;2.28;;
41139;SDS011;26881;48.784;9.192;2023-07-20T11:59:00;2.33;;;1.20;;
41139;SDS011;26881;48.784;9.192;2023-07-20T12:04:24;2.42;;;1.40;;
41139;SDS011;26881;48.784;9.192;2023-07-20T12:15:45;1.20;;;1.10;;
41139;SDS011;26881;48.784;9.192;2023-07-20T12:21:08;1.50;;;1.00;;
41139;SDS011;26881;48.784;9.192;2023-07-20T12:26:30;4.15;;;1.30;;
41139;SDS011;26881;48.784;9.192;2023-07-20T12:31:53;1.52;;;1.10;;
41139;SDS011;26881;48.784;9.192;2023-07-20T12:37:17;1.38;;;1.27;;
41139;SDS011;26881;48.784;9.192;2023-07-20T12:42:39;2.47;;;1.15;;
41139;SDS011;26881;48.784;9.192;2023-07-20T12:48:01;2.15;;;1.10;;
41139;SDS011;26881;48.784;9.192;2023-07-20T12:53:23;1.88;;;1.15;;
41139;SDS011;26881;48.784;9.192;2023-07-20T12:58:45;3.72;;;1.05;;
41139;SDS011;26881;48.784;9.192;2023-07-20T13:04:07;4.07;;;1.20;;
41139;SDS011;26881;48.784;9.192;2023-07-20T13:09:35;2.70;;;1.25;;
41139;SDS011;26881;48.784;9.192;2023-07-20T13:14:56;1.70;;;1.17;;
41139;SDS011;26881;48.784;9.192;2023-07-20T13:20:22;3.17;;;1.10;;
41139;SDS011;26881;48.784;9.192;2023-07-20T13:25:44;2.22;;;1.20;;
41139;SDS011;26881;48.784;9.192;2023-07-20T13:31:06;1.17;;;1.05;;
41139;SDS011;26881;48.784;9.192;2023-07-20T13:36:32;1.13;;;1.00;;
41139;SDS011;26881;48.784;9.192;2023-07-20T13:41:57;1.15;;;1.05;;
41139;SDS011;26881;48.784;9.192;2023-07-20T13:47:18;10.32;;;1.30;;
41139;SDS011;26881;48.784;9.192;2023-07-20T13:52:42;3.17;;;1.20;;
41139;SDS011;26881;48.784;9.192;2023-07-20T13:58:04;5.97;;;1.40;;
41139;SDS011;26881;48.784;9.192;2023-07-20T14:03:26;3.10;;;1.70;;
41139;SDS011;26881;48.784;9.192;2023-07-20T14:08:48;4.82;;;1.30;;
41139;SDS011;26881;48.784;9.192;2023-07-20T14:14:11;2.33;;;1.20;;
41139;SDS011;26881;48.784;9.192;2023-07-20T14:19:33;2.20;;;1.15;;
41139;SDS011;26881;48.784;9.192;2023-07-20T14:24:55;1.52;;;1.20;;
41139;SDS011;26881;48.784;9.192;2023-07-20T14:30:20;4.82;;;1.10;;
41139;SDS011;26881;48.784;9.192;2023-07-20T14:35:41;3.13;;;1.20;;
41139;SDS011;26881;48.784;9.192;2023-07-20T14:41:03;1.42;;;1.33;;
41139;SDS011;26881;48.784;9.192;2023-07-20T14:46:28;2.22;;;1.17;;
41139;SDS011;26881;48.784;9.192;2023-07-20T14:51:50;1.67;;;0.93;;
41139;SDS011;26881;48.784;9.192;2023-07-20T14:57:14;2.05;;;1.25;;
41139;SDS011;26881;48.784;9.192;2023-07-20T15:02:37;1.50;;;1.15;;
41139;SDS011;26881;48.784;9.192;2023-07-20T15:07:59;5.75;;;1.20;;
41139;SDS011;26881;48.784;9.192;2023-07-20T15:13:21;2.72;;;1.35;;
41139;SDS011;26881;48.784;9.192;2023-07-20T15:18:43;1.77;;;1.20;;
41139;SDS011;26881;48.784;9.192;2023-07-20T15:24:09;2.47;;;1.50;;
41139;SDS011;26881;48.784;9.192;2023-07-20T15:29:31;2.55;;;1.20;;
41139;SDS011;26881;48.784;9.192;2023-07-20T15:34:56;3.53;;;1.52;;
41139;SDS011;26881;48.784;9.192;2023-07-20T15:40:18;1.20;;;1.10;;
41139;SDS011;26881;48.784;9.192;2023-07-20T15:45:40;2.03;;;1.27;;
41139;SDS011;26881;48.784;9.192;2023-07-20T15:51:04;3.70;;;1.10;;
41139;SDS011;26881;48.784;9.192;2023-07-20T15:56:26;1.50;;;1.10;;
41139;SDS011;26881;48.784;9.192;2023-07-20T16:01:48;1.60;;;1.10;;
41139;SDS011;26881;48.784;9.192;2023-07-20T16:07:11;1.10;;;1.00;;
41139;SDS011;26881;48.784;9.192;2023-07-20T16:12:33;1.27;;;1.20;;
41139;SDS011;26881;48.784;9.192;2023-07-20T16:17:55;15.57;;;1.67;;
41139;SDS011;26881;48.784;9.192;2023-07-20T16:23:17;3.67;;;1.13;;
41139;SDS011;26881;48.784;9.192;2023-07-20T16:28:39;1.40;;;1.30;;
41139;SDS011;26881;48.784;9.192;2023-07-20T16:34:01;2.28;;;1.58;;
41139;SDS011;26881;48.784;9.192;2023-07-20T16:39:26;3.63;;;1.52;;
41139;SDS011;26881;48.784;9.192;2023-07-20T16:44:49;1.70;;;1.20;;
41139;SDS011;26881;48.784;9.192;2023-07-20T16:50:12;1.35;;;1.25;;
41139;SDS011;26881;48.784;9.192;2023-07-20T16:55:33;1.38;;;1.27;;
41139;SDS011;26881;48.784;9.192;2023-07-20T17:00:59;2.95;;;1.10;;
41139;SDS011;26881;48.784;9.192;2023-07-20T17:06:26;3.00;;;1.40;;
41139;SDS011;26881;48.784;9.192;2023-07-20T17:11:48;3.38;;;1.30;;
41139;SDS011;26881;48.784;9.192;2023-07-20T17:17:10;4.00;;;1.33;;
41139;SDS011;26881;48.784;9.192;2023-07-20T17:22:32;3.30;;;1.25;;
41139;SDS011;26881;48.784;9.192;2023-07-20T17:27:54;1.63;;;1.20;;
41139;SDS011;26881;48.784;9.192;2023-07-20T17:33:19;2.28;;;1.48;;
41139;SDS011;26881;48.784;9.192;2023-07-20T17:38:41;3.05;;;1.60;;
41139;SDS011;26881;48.784;9.192;2023-07-20T17:44:05;1.70;;;1.60;;
41139;SDS011;26881;48.784;9.192;2023-07-20T17:49:27;1.73;;;1.55;;
41139;SDS011;26881;48.784;9.192;2023-07-20T17:54:49;3.47;;;1.50;;
41139;SDS011;26881;48.784;9.192;2023-07-20T18:00:11;2.53;;;1.15;;
41139;SDS011;26881;48.784;9.192;2023-07-20T18:05:36;1.40;;;1.30;;
41139;SDS011;26881;48.784;9.192;2023-07-20T18:11:04;1.95;;;1.30;;
41139;SDS011;26881;48.784;9.192;2023-07-20T18:16:27;4.25;;;1.25;;
41139;SDS011;26881;48.784;9.192;2023-07-20T18:21:49;3.40;;;1.42;;
41139;SDS011;26881;48.784;9.192;2023-07-20T18:27:12;1.38;;;1.27;;
41139;SDS011;26881;48.784;9.192;2023-07-20T18:32:35;5.20;;;1.40;;
41139;SDS011;26881;48.784;9.192;2023-07-20T18:37:57;2.17;;;1.65;;
41139;SDS011;26881;48.784;9.192;2023-07-20T18:43:19;2.63;;;1.55;;
41139;SDS011;26881;48.784;9.192;2023-07-20T18:48:41;3.03;;;2.83;;
41139;SDS011;26881;48.784;9.192;2023-07-20T18:54:03;4.80;;;1.80;;
41139;SDS011;26881;48.784;9.192;2023-07-20T18:59:25;1.33;;;1.23;;
41139;SDS011;26881;48.784;9.192;2023-07-20T19:04:47;3.63;;;2.00;;
41139;SDS011;26881;48.784;9.192;2023-07-20T19:10:09;3.72;;;1.42;;
41139;SDS011;26881;48.784;9.192;2023-07-20T19:15:32;1.60;;;1.50;;
41139;SDS011;26881;48.784;9.192;2023-07-20T19:20:57;2.38;;;1.50;;
41139;SDS011;26881;48.784;9.192;2023-07-20T19:26:20;1.70;;;1.60;;
41139;SDS011;26881;48.784;9.192;2023-07-20T19:31:42;1.60;;;1.50;;
41139;SDS011;26881;48.784;9.192;2023-07-20T19:37:04;2.22;;;1.50;;
41139;SDS011;26881;48.784;9.192;2023-07-20T19:42:26;2.92;;;1.80;;
41139;SDS011;26881;48.784;9.192;2023-07-20T19:47:48;4.72;;;1.80;;
41139;SDS011;26881;48.784;9.192;2023-07-20T19:53:10;3.05;;;2.25;;
41139;SDS011;26881;48.784;9.192;2023-07-20T19:58:35;3.05;;;2.13;;
41139;SDS011;26881;48.784;9.192;2023-07-20T20:03:57;2.78;;;1.75;;
41139;SDS011;26881;48.784;9.192;2023-07-20T20:09:22;2.72;;;1.77;;
41139;SDS011;26881;48.784;9.192;2023-07-20T20:14:46;4.22;;;2.25;;
41139;SDS011;26881;48.784;9.192;2023-07-20T20:20:08;2.95;;;2.25;;
41139;SDS011;26881;48.784;9.192;2023-07-20T20:25:31;5.13;;;2.60;;
41139;SDS011;26881;48.784;9.192;2023-07-20T20:30:53;3.97;;;2.25;;
41139;SDS011;26881;48.784;9.192;2023-07-20T20:36:17;4.85;;;1.98;;
41139;SDS011;26881;48.784;9.192;2023-07-20T20:41:39;2.65;;;2.17;;
41139;SDS011;26881;48.784;9.192;2023-07-20T20:47:07;2.05;;;1.80;;
41139;SDS011;26881;48.784;9.192;2023-07-20T20:52:29;2.65;;;1.75;;
41139;SDS011;26881;48.784;9.192;2023-07-20T20:57:51;4.25;;;1.95;;
41139;SDS011;26881;48.784;9.192;2023-07-20T21:03:18;4.40;;;2.30;;
41139;SDS011;26881;48.784;9.192;2023-07-20T21:08:40;3.17;;;2.10;;
41139;SDS011;26881;48.784;9.192;2023-07-20T21:14:02;3.05;;;1.80;;
41139;SDS011;26881;48.784;9.192;2023-07-20T21:19:24;5.57;;;2.00;;
41139;SDS011;26881;48.784;9.192;2023-07-20T21:24:46;4.47;;;1.75;;
41139;SDS011;26881;48.784;9.192;2023-07-20T21:30:08;3.63;;;1.80;;
41139;SDS011;26881;48.784;9.192;2023-07-20T21:35:30;2.53;;;1.90;;
41139;SDS011;26881;48.784;9.192;2023-07-20T21:40:54;2.50;;;1.70;;
41139;SDS011;26881;48.784;9.192;2023-07-20T21:46:15;3.33;;;1.80;;
41139;SDS011;26881;48.784;9.192;2023-07-20T21:51:37;1.67;;;1.50;;
41139;SDS011;26881;48.784;9.192;2023-07-20T21:56:59;2.40;;;1.85;;
41139;SDS011;26881;48.784;9.192;2023-07-20T22:02:21;3.35;;;1.92;;
41139;SDS011;26881;48.784;9.192;2023-07-20T22:07:43;4.97;;;2.03;;
41139;SDS011;26881;48.784;9.192;2023-07-20T22:13:05;4.28;;;1.88;;
41139;SDS011;26881;48.784;9.192;2023-07-20T22:18:28;2.53;;;1.60;;
41139;SDS011;26881;48.784;9.192;2023-07-20T22:23:57;3.05;;;1.75;;
41139;SDS011;26881;48.784;9.192;2023-07-20T22:29:19;2.45;;;1.88;;
41139;SDS011;26881;48.784;9.192;2023-07-20T22:34:41;2.40;;;1.58;;
41139;SDS011;26881;48.784;9.192;2023-07-20T22:40:03;4.13;;;1.75;;
41139;SDS011;26881;48.784;9.192;2023-07-20T22:45:30;3.00;;;1.50;;
41139;SDS011;26881;48.784;9.192;2023-07-20T22:50:52;2.47;;;1.80;;
41139;SDS011;26881;48.784;9.192;2023-07-20T22:56:15;1.95;;;1.73;;
41139;SDS011;26881;48.784;9.192;2023-07-20T23:01:37;2.45;;;2.22;;
41139;SDS011;26881;48.784;9.192;2023-07-20T23:07:04;4.22;;;1.63;;
41139;SDS011;26881;48.784;9.192;2023-07-20T23:12:27;2.15;;;1.83;;
41139;SDS011;26881;48.784;9.192;2023-07-20T23:17:48;5.18;;;2.17;;
41139;SDS011;26881;48.784;9.192;2023-07-20T23:23:10;5.82;;;1.80;;
41139;SDS011;26881;48.784;9.192;2023-07-20T23:28:32;3.47;;;1.90;;
41139;SDS011;26881;48.784;9.192;2023-07-20T23:33:54;2.08;;;1.67;;
41139;SDS011;26881;48.784;9.192;2023-07-20T23:39:16;7.25;;;2.00;;
41139;SDS011;26881;48.784;9.192;2023-07-20T23:44:38;4.95;;;1.98;;
41139;SDS011;26881;48.784;9.192;2023-07-20T23:50:02;3.25;;;1.70;;
41139;SDS011;26881;48.784;9.192;2023-07-20T23:55:25;3.03;;;1.70;;
